Time;durP1;ratioP1;P1;durP2;ratioP2;P2;SDS_P1;SDS_P2;PMS_P1;PMS_P2;Temp;Humidity;BMP_temperature;BMP_pressure;BME280_temperature;BME280_humidity;BME280_pressure;Samples;Min_cycle;Max_cycle;Signal;HPM_P1;HPM_P2
2021/12/09 00:03:35;;;;;;;65.83;23.83;;;;;;;;;;6238503;23;20143;-90
2021/12/09 00:06:44;;;;;;;60.90;22.07;;;;;;;;;;6220430;23;20172;-90
2021/12/09 00:09:50;;;;;;;68.13;22.30;;;;;;;;;;6222621;23;20238;-91
2021/12/09 00:13:00;;;;;;;62.03;21.70;;;;;;;;;;6219642;23;20220;-90
2021/12/09 00:16:06;;;;;;;65.00;22.40;;;;;;;;;;6218932;23;20194;-90
2021/12/09 00:19:13;;;;;;;67.63;22.97;;;;;;;;;;6218457;23;20226;-90
2021/12/09 00:22:25;;;;;;;70.57;22.67;;;;;;;;;;6216915;23;20167;-91
2021/12/09 00:25:33;;;;;;;66.43;22.80;;;;;;;;;;6218610;23;20191;-90
2021/12/09 00:28:40;;;;;;;77.43;24.30;;;;;;;;;;6218007;23;20167;-91
2021/12/09 00:31:47;;;;;;;71.53;23.17;;;;;;;;;;6216895;23;20158;-89
2021/12/09 00:34:54;;;;;;;67.03;23.43;;;;;;;;;;6215835;23;20238;-88
2021/12/09 00:38:04;;;;;;;63.10;22.33;;;;;;;;;;6215013;23;20503;-89
2021/12/09 00:41:10;;;;;;;65.23;22.27;;;;;;;;;;6214913;23;20166;-90
2021/12/09 00:44:16;;;;;;;70.00;24.90;;;;;;;;;;6213513;23;20183;-90
2021/12/09 00:47:22;;;;;;;72.67;24.40;;;;;;;;;;6214871;23;20195;-89
2021/12/09 00:50:28;;;;;;;69.60;22.37;;;;;;;;;;6215970;23;20183;-89
2021/12/09 00:53:34;;;;;;;61.80;23.00;;;;;;;;;;6214565;23;20164;-89
2021/12/09 00:56:39;;;;;;;75.27;25.07;;;;;;;;;;6213618;23;20197;-89
2021/12/09 00:59:45;;;;;;;73.13;24.17;;;;;;;;;;6215810;23;20237;-89
2021/12/09 01:02:50;;;;;;;71.80;24.63;;;;;;;;;;6216786;23;20191;-90
2021/12/09 01:05:59;;;;;;;68.33;23.90;;;;;;;;;;6215710;23;20294;-88
2021/12/09 01:09:04;;;;;;;70.53;24.07;;;;;;;;;;6214328;23;20167;-91
2021/12/09 01:12:10;;;;;;;69.73;25.00;;;;;;;;;;6221117;23;20212;-89
2021/12/09 01:15:16;;;;;;;75.80;25.47;;;;;;;;;;6216131;23;20206;-89
2021/12/09 01:18:21;;;;;;;70.30;24.60;;;;;;;;;;6219514;23;20171;-88
2021/12/09 01:24:24;;;;;;;69.43;23.53;;;;;;;;;;6217629;22;20215;-91
2021/12/09 01:27:35;;;;;;;79.37;23.87;;;;;;;;;;6217655;23;20240;-89
2021/12/09 01:30:40;;;;;;;64.57;23.40;;;;;;;;;;6219377;23;20159;-90
2021/12/09 01:33:47;;;;;;;74.50;24.20;;;;;;;;;;6217217;23;20155;-88
2021/12/09 01:36:53;;;;;;;78.80;25.30;;;;;;;;;;6215547;23;20182;-90
2021/12/09 01:40:03;;;;;;;72.43;24.80;;;;;;;;;;6215777;23;20222;-90
2021/12/09 01:43:13;;;;;;;70.83;24.07;;;;;;;;;;6218390;23;20211;-89
2021/12/09 01:46:21;;;;;;;71.60;23.60;;;;;;;;;;6215586;23;20171;-90
2021/12/09 01:49:26;;;;;;;75.00;24.13;;;;;;;;;;6217316;23;20191;-91
2021/12/09 01:52:31;;;;;;;73.07;24.87;;;;;;;;;;6217087;23;20163;-91
2021/12/09 01:55:38;;;;;;;81.03;25.97;;;;;;;;;;6216521;23;20191;-89
2021/12/09 01:58:44;;;;;;;75.27;26.30;;;;;;;;;;6215763;23;20171;-89
2021/12/09 02:01:48;;;;;;;83.87;25.40;;;;;;;;;;6215749;23;20279;-88
2021/12/09 02:04:53;;;;;;;79.67;25.77;;;;;;;;;;6213681;23;20163;-88
2021/12/09 02:08:01;;;;;;;76.03;25.63;;;;;;;;;;6214281;23;20170;-90
2021/12/09 02:11:08;;;;;;;76.77;24.63;;;;;;;;;;6214684;23;20500;-89
2021/12/09 02:14:13;;;;;;;75.77;25.50;;;;;;;;;;6213745;23;20207;-90
2021/12/09 02:17:19;;;;;;;71.10;24.13;;;;;;;;;;6213882;23;20166;-89
2021/12/09 02:20:28;;;;;;;80.70;25.53;;;;;;;;;;6213229;23;20158;-90
2021/12/09 02:23:34;;;;;;;75.33;25.77;;;;;;;;;;6215103;23;20194;-88
2021/12/09 02:26:40;;;;;;;83.03;27.13;;;;;;;;;;6213435;23;20695;-88
2021/12/09 02:29:45;;;;;;;83.03;27.80;;;;;;;;;;6213593;23;20171;-89
2021/12/09 02:32:50;;;;;;;71.27;24.20;;;;;;;;;;6213396;23;20298;-88
2021/12/09 02:35:57;;;;;;;76.13;24.97;;;;;;;;;;6214441;23;20182;-89
2021/12/09 02:39:02;;;;;;;73.17;25.20;;;;;;;;;;6213612;23;20166;-90
2021/12/09 02:42:07;;;;;;;78.23;26.80;;;;;;;;;;6213882;23;20600;-88
2021/12/09 02:45:12;;;;;;;80.33;25.47;;;;;;;;;;6211934;23;20242;-89
2021/12/09 02:48:18;;;;;;;86.07;25.87;;;;;;;;;;6213755;23;20247;-90
2021/12/09 02:51:24;;;;;;;76.93;24.80;;;;;;;;;;6213056;23;20171;-89
2021/12/09 02:54:29;;;;;;;77.33;25.60;;;;;;;;;;6212018;23;20548;-90
2021/12/09 02:57:35;;;;;;;83.93;26.90;;;;;;;;;;6229906;23;20178;-89
2021/12/09 03:00:52;;;;;;;76.03;25.53;;;;;;;;;;6214059;23;20166;-88
2021/12/09 03:04:00;;;;;;;78.73;24.93;;;;;;;;;;6212807;23;20183;-88
2021/12/09 03:07:06;;;;;;;76.83;24.90;;;;;;;;;;6213479;23;20167;-90
2021/12/09 03:10:19;;;;;;;84.00;25.13;;;;;;;;;;6210866;23;20171;-89
2021/12/09 03:13:24;;;;;;;84.63;26.27;;;;;;;;;;6211251;23;20491;-89
2021/12/09 03:16:29;;;;;;;78.23;24.60;;;;;;;;;;6210900;23;20195;-91
2021/12/09 03:19:34;;;;;;;78.97;25.83;;;;;;;;;;6211121;23;20175;-91
2021/12/09 03:22:41;;;;;;;81.43;25.07;;;;;;;;;;6212229;23;20171;-91
2021/12/09 03:25:46;;;;;;;78.97;24.67;;;;;;;;;;6209720;23;20163;-90
2021/12/09 03:28:51;;;;;;;79.27;24.40;;;;;;;;;;6211427;23;20182;-90
2021/12/09 03:31:57;;;;;;;75.67;24.43;;;;;;;;;;6214519;23;20175;-88
2021/12/09 03:35:03;;;;;;;77.23;25.50;;;;;;;;;;6211651;23;20167;-89
2021/12/09 03:38:10;;;;;;;77.73;25.60;;;;;;;;;;6210836;23;20171;-90
2021/12/09 03:41:16;;;;;;;85.87;25.23;;;;;;;;;;6232760;23;20187;-90
2021/12/09 03:44:26;;;;;;;78.10;25.80;;;;;;;;;;6212733;23;20155;-90
2021/12/09 03:47:32;;;;;;;85.00;26.33;;;;;;;;;;6210781;23;20167;-89
2021/12/09 03:50:37;;;;;;;78.33;25.27;;;;;;;;;;6212011;23;20251;-88
2021/12/09 03:53:43;;;;;;;83.87;26.77;;;;;;;;;;6211766;23;20506;-88
2021/12/09 03:56:48;;;;;;;78.80;25.77;;;;;;;;;;6211667;23;20633;-89
2021/12/09 03:59:54;;;;;;;82.83;25.67;;;;;;;;;;6210904;23;20290;-90
2021/12/09 04:03:00;;;;;;;86.67;26.03;;;;;;;;;;6213197;23;20206;-89
2021/12/09 04:06:05;;;;;;;99.53;28.30;;;;;;;;;;6214104;23;20167;-89
2021/12/09 04:09:13;;;;;;;86.33;26.63;;;;;;;;;;6212866;23;20170;-90
2021/12/09 04:12:19;;;;;;;78.67;26.60;;;;;;;;;;6212268;23;20210;-88
2021/12/09 04:15:24;;;;;;;83.93;26.53;;;;;;;;;;6211666;23;20214;-89
2021/12/09 04:18:29;;;;;;;89.37;26.33;;;;;;;;;;6212319;23;20215;-89
2021/12/09 04:21:34;;;;;;;77.30;26.30;;;;;;;;;;6210434;23;20172;-89
2021/12/09 04:24:41;;;;;;;86.20;26.87;;;;;;;;;;6209703;23;20685;-91
2021/12/09 04:27:46;;;;;;;82.03;25.90;;;;;;;;;;6214434;23;20174;-88
2021/12/09 04:30:51;;;;;;;77.97;25.30;;;;;;;;;;6212660;23;20244;-91
2021/12/09 04:33:57;;;;;;;84.50;27.30;;;;;;;;;;6216031;23;20155;-88
2021/12/09 04:37:02;;;;;;;91.47;26.93;;;;;;;;;;6214238;23;20182;-88
2021/12/09 04:40:11;;;;;;;84.43;26.77;;;;;;;;;;6212931;23;20247;-88
2021/12/09 04:43:15;;;;;;;87.10;27.13;;;;;;;;;;6214208;23;20198;-89
2021/12/09 04:46:20;;;;;;;91.20;26.70;;;;;;;;;;6212337;23;20174;-90
2021/12/09 04:49:25;;;;;;;82.00;26.03;;;;;;;;;;6212620;23;20158;-91
2021/12/09 04:52:32;;;;;;;78.60;25.33;;;;;;;;;;6212473;23;20151;-88
2021/12/09 04:55:38;;;;;;;77.57;25.50;;;;;;;;;;6209103;23;20541;-88
2021/12/09 04:58:43;;;;;;;93.17;26.27;;;;;;;;;;6211207;23;20227;-88
2021/12/09 05:01:50;;;;;;;83.87;26.03;;;;;;;;;;6209801;23;20171;-88
2021/12/09 05:04:55;;;;;;;97.47;26.00;;;;;;;;;;6210705;23;20281;-87
2021/12/09 05:08:01;;;;;;;88.27;26.90;;;;;;;;;;6209037;23;20170;-89
2021/12/09 05:11:14;;;;;;;85.50;27.80;;;;;;;;;;6212557;23;20281;-87
2021/12/09 05:14:23;;;;;;;78.87;25.33;;;;;;;;;;6210266;23;20179;-88
2021/12/09 05:17:28;;;;;;;77.33;25.87;;;;;;;;;;6210695;23;20263;-87
2021/12/09 05:20:33;;;;;;;79.07;26.70;;;;;;;;;;6210829;23;20204;-87
2021/12/09 05:23:38;;;;;;;96.10;28.77;;;;;;;;;;6210447;23;20194;-87
2021/12/09 05:26:50;;;;;;;79.00;25.40;;;;;;;;;;6209669;23;20232;-87
2021/12/09 05:30:04;;;;;;;91.03;27.43;;;;;;;;;;6208793;23;20172;-87
2021/12/09 05:33:08;;;;;;;82.47;26.27;;;;;;;;;;6208589;23;20490;-87
2021/12/09 05:36:18;;;;;;;88.33;26.47;;;;;;;;;;6207382;23;20198;-88
2021/12/09 05:39:23;;;;;;;86.00;25.50;;;;;;;;;;6208472;23;20167;-89
2021/12/09 05:42:29;;;;;;;97.10;28.23;;;;;;;;;;6210328;23;20163;-88
2021/12/09 05:45:34;;;;;;;86.10;27.67;;;;;;;;;;6209567;23;20167;-87
2021/12/09 05:48:41;;;;;;;84.70;25.93;;;;;;;;;;6210328;23;20206;-89
2021/12/09 05:51:46;;;;;;;89.20;27.90;;;;;;;;;;6210663;23;20219;-90
2021/12/09 05:54:52;;;;;;;82.07;26.40;;;;;;;;;;6211516;23;20218;-87
2021/12/09 05:57:58;;;;;;;94.77;28.70;;;;;;;;;;6211870;23;20198;-89
2021/12/09 06:01:05;;;;;;;81.20;27.10;;;;;;;;;;6214070;23;20175;-89
2021/12/09 06:04:12;;;;;;;82.57;27.57;;;;;;;;;;6215693;23;20244;-88
2021/12/09 06:07:19;;;;;;;87.13;26.80;;;;;;;;;;6213503;23;20302;-89
2021/12/09 06:10:24;;;;;;;87.63;27.67;;;;;;;;;;6213258;23;20163;-89
2021/12/09 06:13:36;;;;;;;81.23;26.03;;;;;;;;;;6213328;23;20170;-88
2021/12/09 06:16:41;;;;;;;76.20;24.87;;;;;;;;;;6215031;23;20183;-89
2021/12/09 06:19:46;;;;;;;84.13;26.30;;;;;;;;;;6216735;23;20224;-90
2021/12/09 06:22:51;;;;;;;80.70;26.33;;;;;;;;;;6214778;23;20244;-88
2021/12/09 06:25:56;;;;;;;82.07;27.60;;;;;;;;;;6217406;23;20198;-87
2021/12/09 06:29:03;;;;;;;84.73;26.20;;;;;;;;;;6232598;23;20167;-89
2021/12/09 06:32:09;;;;;;;85.50;25.40;;;;;;;;;;6213233;23;20583;-90
2021/12/09 06:39:01;;;;;;;86.83;26.83;;;;;;;;;;6216214;23;20164;-89
2021/12/09 06:42:06;;;;;;;85.50;25.80;;;;;;;;;;6216041;23;20290;-88
2021/12/09 06:45:13;;;;;;;82.67;26.97;;;;;;;;;;6211919;23;20178;-89
2021/12/09 06:48:18;;;;;;;85.70;26.23;;;;;;;;;;6214429;23;20170;-91
2021/12/09 06:51:23;;;;;;;76.67;25.13;;;;;;;;;;6216078;23;20176;-90
2021/12/09 06:54:29;;;;;;;71.40;23.57;;;;;;;;;;6215766;23;20216;-87
2021/12/09 06:57:35;;;;;;;72.27;25.17;;;;;;;;;;6213867;23;20263;-90
2021/12/09 07:00:46;;;;;;;77.73;24.00;;;;;;;;;;6215056;23;20158;-88
2021/12/09 07:03:53;;;;;;;78.73;24.60;;;;;;;;;;6215654;23;20175;-90
2021/12/09 07:06:58;;;;;;;86.20;25.13;;;;;;;;;;6216622;23;20194;-88
2021/12/09 07:10:03;;;;;;;91.73;27.00;;;;;;;;;;6236673;23;20172;-91
2021/12/09 07:13:09;;;;;;;82.17;25.87;;;;;;;;;;6219114;23;20179;-90
2021/12/09 07:16:16;;;;;;;139.90;45.10;;;;;;;;;;6217153;23;20180;-89
2021/12/09 07:19:27;;;;;;;89.77;26.80;;;;;;;;;;6217838;23;20224;-88
2021/12/09 07:22:32;;;;;;;80.07;27.00;;;;;;;;;;6217816;23;20242;-89
2021/12/09 07:25:38;;;;;;;81.43;26.13;;;;;;;;;;6217483;23;20151;-88
2021/12/09 07:28:44;;;;;;;92.73;25.70;;;;;;;;;;6216264;23;20215;-89
2021/12/09 07:31:51;;;;;;;93.57;29.03;;;;;;;;;;6218913;23;20156;-88
2021/12/09 07:34:56;;;;;;;86.80;28.50;;;;;;;;;;6217053;23;20207;-89
2021/12/09 07:38:03;;;;;;;77.87;26.47;;;;;;;;;;6220288;23;20194;-88
2021/12/09 07:41:08;;;;;;;94.00;26.37;;;;;;;;;;6219211;23;20163;-88
2021/12/09 07:44:17;;;;;;;88.10;28.70;;;;;;;;;;6220808;23;20155;-89
2021/12/09 07:47:24;;;;;;;81.70;27.13;;;;;;;;;;6219785;23;20191;-89
2021/12/09 07:50:31;;;;;;;80.20;26.57;;;;;;;;;;6217260;23;20194;-89
2021/12/09 07:53:37;;;;;;;73.40;25.40;;;;;;;;;;6219267;23;20152;-88
2021/12/09 07:56:42;;;;;;;75.20;24.70;;;;;;;;;;6217517;23;20202;-89
2021/12/09 07:59:48;;;;;;;78.27;24.43;;;;;;;;;;6218237;23;20174;-89
2021/12/09 08:02:55;;;;;;;76.47;24.63;;;;;;;;;;6216082;23;20150;-88
2021/12/09 08:06:01;;;;;;;84.17;26.17;;;;;;;;;;6217529;23;20182;-87
2021/12/09 08:09:09;;;;;;;74.33;24.87;;;;;;;;;;6218636;23;20243;-88
2021/12/09 08:12:15;;;;;;;76.13;26.00;;;;;;;;;;6215429;23;20170;-89
2021/12/09 08:15:20;;;;;;;78.33;26.03;;;;;;;;;;6219593;23;20155;-90
2021/12/09 08:18:31;;;;;;;90.47;26.10;;;;;;;;;;6217061;23;20194;-90
2021/12/09 08:21:37;;;;;;;79.80;26.60;;;;;;;;;;6216802;23;20174;-90
2021/12/09 08:24:42;;;;;;;78.37;26.10;;;;;;;;;;6217277;23;20260;-90
2021/12/09 08:27:47;;;;;;;76.40;25.70;;;;;;;;;;6210098;23;20159;-89
2021/12/09 08:30:53;;;;;;;85.87;25.70;;;;;;;;;;6209855;23;20167;-90
2021/12/09 08:34:04;;;;;;;72.27;23.43;;;;;;;;;;6209193;23;20468;-89
2021/12/09 08:40:31;;;;;;;83.30;25.53;;;;;;;;;;6213540;23;20172;-87
2021/12/09 08:43:37;;;;;;;77.87;25.43;;;;;;;;;;6212911;23;20159;-89
2021/12/09 08:46:44;;;;;;;68.40;24.07;;;;;;;;;;6214872;23;20195;-85
2021/12/09 08:49:52;;;;;;;70.97;25.47;;;;;;;;;;6214108;23;20175;-87
2021/12/09 08:52:59;;;;;;;74.70;25.80;;;;;;;;;;6212455;23;20167;-88
2021/12/09 08:59:25;;;;;;;71.67;25.20;;;;;;;;;;6210212;23;20172;-90
2021/12/09 09:02:30;;;;;;;75.33;26.10;;;;;;;;;;6213871;23;20210;-92
2021/12/09 09:05:38;;;;;;;76.93;25.27;;;;;;;;;;6215019;23;20218;-90
2021/12/09 09:08:44;;;;;;;87.20;27.17;;;;;;;;;;6214234;23;20219;-86
2021/12/09 09:11:49;;;;;;;73.70;24.70;;;;;;;;;;6214257;23;20216;-89
2021/12/09 09:14:54;;;;;;;79.20;26.83;;;;;;;;;;6214379;23;20198;-89
2021/12/09 09:18:02;;;;;;;75.87;25.30;;;;;;;;;;6217279;23;20279;-88
2021/12/09 09:21:12;;;;;;;78.77;26.13;;;;;;;;;;6214310;23;20463;-87
2021/12/09 09:24:17;;;;;;;73.77;24.43;;;;;;;;;;6217200;23;20194;-89
2021/12/09 09:27:23;;;;;;;70.13;25.30;;;;;;;;;;6214523;23;20166;-88
2021/12/09 09:30:34;;;;;;;89.20;29.87;;;;;;;;;;6216781;23;20167;-88
2021/12/09 09:33:40;;;;;;;82.43;27.97;;;;;;;;;;6217671;23;20187;-88
2021/12/09 09:36:48;;;;;;;86.80;27.53;;;;;;;;;;6219866;23;20218;-88
2021/12/09 09:39:57;;;;;;;73.40;25.23;;;;;;;;;;6218999;23;20146;-88
2021/12/09 09:43:13;;;;;;;87.30;26.27;;;;;;;;;;6217636;23;20174;-88
2021/12/09 09:46:20;;;;;;;80.93;26.07;;;;;;;;;;6218169;23;20287;-88
2021/12/09 13:26:57;;;;;;;74.93;26.40;;;;;;;;;;6222129;22;20211;-87
2021/12/09 13:40:40;;;;;;;74.20;26.87;;;;;;;;;;6214661;23;20187;-87
2021/12/09 13:47:23;;;;;;;84.43;29.43;;;;;;;;;;6201197;23;20229;-87
2021/12/09 13:54:18;;;;;;;77.00;25.80;;;;;;;;;;6214210;23;20198;-87
2021/12/09 13:57:31;;;;;;;80.13;27.70;;;;;;;;;;6213498;23;20196;-87
2021/12/09 14:00:39;;;;;;;83.37;28.77;;;;;;;;;;6213527;23;20187;-88
2021/12/09 14:03:45;;;;;;;81.07;27.30;;;;;;;;;;6212766;23;20171;-87
2021/12/09 14:06:58;;;;;;;87.93;29.53;;;;;;;;;;6213565;23;20171;-90
2021/12/09 14:10:08;;;;;;;75.57;27.77;;;;;;;;;;6213503;23;20212;-89
2021/12/09 14:13:17;;;;;;;75.93;28.60;;;;;;;;;;6213097;23;20171;-87
2021/12/09 14:16:39;;;;;;;77.13;27.03;;;;;;;;;;6213268;23;20216;-89
2021/12/09 14:23:11;;;;;;;90.33;30.90;;;;;;;;;;6213719;23;20172;-88
2021/12/09 14:26:16;;;;;;;92.67;28.20;;;;;;;;;;6214911;23;20218;-90
2021/12/09 14:29:22;;;;;;;79.37;27.50;;;;;;;;;;6214784;23;20286;-89
2021/12/09 14:32:31;;;;;;;93.23;32.07;;;;;;;;;;6216436;23;20167;-87
2021/12/09 14:35:43;;;;;;;87.73;31.63;;;;;;;;;;6216312;23;20556;-89
2021/12/09 14:38:49;;;;;;;77.63;29.93;;;;;;;;;;6212958;23;20187;-89
2021/12/09 14:42:06;;;;;;;77.27;28.43;;;;;;;;;;6220108;23;20509;-89
2021/12/09 14:45:12;;;;;;;84.57;30.97;;;;;;;;;;6216614;23;20176;-88
2021/12/09 14:48:26;;;;;;;79.40;28.53;;;;;;;;;;6215065;23;20178;-90
2021/12/09 14:51:33;;;;;;;77.57;28.53;;;;;;;;;;6211295;23;20251;-87
2021/12/09 14:54:38;;;;;;;85.27;29.87;;;;;;;;;;6214042;23;20187;-91
2021/12/09 14:57:57;;;;;;;83.43;29.43;;;;;;;;;;6217391;23;20219;-89
2021/12/09 15:01:10;;;;;;;85.43;29.60;;;;;;;;;;6217204;23;20155;-88
2021/12/09 15:04:32;;;;;;;98.03;33.27;;;;;;;;;;6218049;23;20175;-88
2021/12/09 15:11:02;;;;;;;82.80;27.63;;;;;;;;;;6218677;23;20183;-89
2021/12/09 15:14:16;;;;;;;93.50;32.37;;;;;;;;;;6218197;23;20249;-88
2021/12/09 15:24:15;;;;;;;72.30;28.50;;;;;;;;;;6221163;23;20183;-88
2021/12/09 15:27:20;;;;;;;80.77;29.03;;;;;;;;;;6222150;23;20232;-88
2021/12/09 15:30:46;;;;;;;77.57;29.47;;;;;;;;;;6221281;23;20224;-88
2021/12/09 15:37:17;;;;;;;76.00;27.40;;;;;;;;;;6222565;23;20155;-88
2021/12/09 15:43:58;;;;;;;80.73;28.60;;;;;;;;;;6222919;23;20163;-91
2021/12/09 18:46:58;;;;;;;35.17;15.37;;;;;;;;;;6209787;22;20304;-88
2021/12/09 18:50:05;;;;;;;34.27;14.77;;;;;;;;;;6212852;23;20215;-88
2021/12/09 18:53:11;;;;;;;41.07;15.27;;;;;;;;;;6212146;23;20155;-86
2021/12/09 18:56:16;;;;;;;42.23;17.37;;;;;;;;;;6213661;23;20171;-88
2021/12/09 18:59:21;;;;;;;39.37;16.10;;;;;;;;;;6214531;23;20267;-88
2021/12/09 19:02:28;;;;;;;32.20;14.77;;;;;;;;;;6212057;23;20172;-86
2021/12/09 19:05:33;;;;;;;28.67;14.10;;;;;;;;;;6213199;23;20182;-89
2021/12/09 19:08:39;;;;;;;33.93;15.27;;;;;;;;;;6215176;23;20236;-87
2021/12/09 19:11:46;;;;;;;32.57;14.80;;;;;;;;;;6214335;23;20163;-89
2021/12/09 19:14:53;;;;;;;34.93;15.63;;;;;;;;;;6214404;23;20190;-88
2021/12/09 19:18:03;;;;;;;42.30;16.20;;;;;;;;;;6214020;23;20167;-88
2021/12/09 19:21:11;;;;;;;47.10;18.67;;;;;;;;;;6215591;23;20167;-89
2021/12/09 19:24:17;;;;;;;38.17;16.90;;;;;;;;;;6214213;23;20682;-89
2021/12/09 19:27:22;;;;;;;41.07;16.47;;;;;;;;;;6214245;23;20167;-88
2021/12/09 19:30:29;;;;;;;42.30;17.77;;;;;;;;;;6215398;23;20179;-90
2021/12/09 19:33:35;;;;;;;42.00;15.10;;;;;;;;;;6214337;23;20168;-90
2021/12/09 19:36:43;;;;;;;35.70;16.07;;;;;;;;;;6213204;23;20175;-91
2021/12/09 19:39:48;;;;;;;36.70;16.70;;;;;;;;;;6211976;23;20190;-88
2021/12/09 19:42:54;;;;;;;36.53;15.93;;;;;;;;;;6212853;23;20209;-89
2021/12/09 19:45:59;;;;;;;39.80;16.83;;;;;;;;;;6212244;23;20182;-89
2021/12/09 19:49:09;;;;;;;36.30;16.47;;;;;;;;;;6213694;23;20163;-89
2021/12/09 19:52:14;;;;;;;34.87;16.33;;;;;;;;;;6214935;23;20250;-88
2021/12/09 19:55:20;;;;;;;45.70;20.57;;;;;;;;;;6214801;23;20493;-89
2021/12/09 19:58:25;;;;;;;50.03;22.73;;;;;;;;;;6214137;23;20190;-90
2021/12/09 20:01:31;;;;;;;37.17;17.57;;;;;;;;;;6215549;23;20179;-89
2021/12/09 20:04:37;;;;;;;33.00;16.60;;;;;;;;;;6212524;23;20214;-89
2021/12/09 20:07:43;;;;;;;41.07;18.63;;;;;;;;;;6210732;23;20203;-85
2021/12/09 20:10:50;;;;;;;34.47;16.57;;;;;;;;;;6212277;23;20218;-89
2021/12/09 20:13:56;;;;;;;37.07;15.77;;;;;;;;;;6211902;23;20163;-88
2021/12/09 20:17:01;;;;;;;31.57;14.60;;;;;;;;;;6212119;23;20187;-89
2021/12/09 20:20:09;;;;;;;28.57;14.53;;;;;;;;;;6211627;23;20198;-89
2021/12/09 20:23:19;;;;;;;28.70;13.37;;;;;;;;;;6213023;23;20237;-86
2021/12/09 20:26:25;;;;;;;27.53;13.23;;;;;;;;;;6213728;23;20175;-88
2021/12/09 20:29:30;;;;;;;30.80;13.37;;;;;;;;;;6214068;23;20156;-88
2021/12/09 20:32:38;;;;;;;30.13;13.93;;;;;;;;;;6213773;23;20210;-88
2021/12/09 20:35:44;;;;;;;31.90;14.30;;;;;;;;;;6213257;23;20175;-88
2021/12/09 20:38:49;;;;;;;29.87;13.43;;;;;;;;;;6212075;23;20314;-88
2021/12/09 20:41:54;;;;;;;28.47;12.97;;;;;;;;;;6212028;23;20179;-87
2021/12/09 20:45:01;;;;;;;27.87;13.07;;;;;;;;;;6213181;23;20174;-90
2021/12/09 20:48:06;;;;;;;23.33;12.30;;;;;;;;;;6213103;23;20219;-89
2021/12/09 20:51:14;;;;;;;29.80;12.83;;;;;;;;;;6211836;23;20211;-88
2021/12/09 20:54:19;;;;;;;24.17;11.20;;;;;;;;;;6214457;23;20219;-89
2021/12/09 20:57:24;;;;;;;21.47;10.97;;;;;;;;;;6211791;23;20167;-87
2021/12/09 21:00:31;;;;;;;21.13;10.87;;;;;;;;;;6212807;23;20250;-88
2021/12/09 21:03:36;;;;;;;23.80;11.30;;;;;;;;;;6214447;23;20210;-89
2021/12/09 21:06:43;;;;;;;26.33;11.67;;;;;;;;;;6215978;23;20159;-89
2021/12/09 21:09:48;;;;;;;20.27;9.67;;;;;;;;;;6233233;23;20222;-87
2021/12/09 21:12:53;;;;;;;20.60;10.37;;;;;;;;;;6213650;23;20518;-89
2021/12/09 21:16:05;;;;;;;22.33;10.17;;;;;;;;;;6212677;23;20179;-86
2021/12/09 21:19:12;;;;;;;20.03;10.40;;;;;;;;;;6212492;23;20267;-88
2021/12/09 21:22:19;;;;;;;22.37;10.60;;;;;;;;;;6212390;23;20170;-89
2021/12/09 21:25:24;;;;;;;20.03;10.33;;;;;;;;;;6211351;23;20174;-88
2021/12/09 21:28:30;;;;;;;23.60;11.20;;;;;;;;;;6213573;23;20182;-88
2021/12/09 21:31:35;;;;;;;22.37;10.47;;;;;;;;;;6214327;23;20171;-87
2021/12/09 21:34:44;;;;;;;20.47;10.77;;;;;;;;;;6215120;23;20167;-88
2021/12/09 21:37:52;;;;;;;23.13;11.37;;;;;;;;;;6216231;23;20167;-88
2021/12/09 21:40:57;;;;;;;23.87;11.37;;;;;;;;;;6212615;23;20171;-88
2021/12/09 21:44:02;;;;;;;25.80;11.90;;;;;;;;;;6212028;23;20167;-89
2021/12/09 21:47:07;;;;;;;24.30;12.03;;;;;;;;;;6215778;23;20186;-88
2021/12/09 21:50:12;;;;;;;25.57;11.13;;;;;;;;;;6214058;23;20171;-88
2021/12/09 21:53:18;;;;;;;21.00;10.60;;;;;;;;;;6214562;23;20163;-88
2021/12/09 21:56:23;;;;;;;21.63;10.53;;;;;;;;;;6215409;23;20170;-87
2021/12/09 21:59:32;;;;;;;20.50;10.90;;;;;;;;;;6214656;23;20191;-88
2021/12/09 22:02:37;;;;;;;21.67;11.10;;;;;;;;;;6214733;23;20159;-88
2021/12/09 22:05:42;;;;;;;31.40;13.70;;;;;;;;;;6214134;23;20655;-89
2021/12/09 22:08:52;;;;;;;43.20;17.43;;;;;;;;;;6211552;23;20171;-87
2021/12/09 22:11:57;;;;;;;21.17;10.50;;;;;;;;;;6212427;23;20192;-88
2021/12/09 22:15:03;;;;;;;22.50;11.17;;;;;;;;;;6211951;23;20169;-88
2021/12/09 22:18:15;;;;;;;21.17;11.53;;;;;;;;;;6212686;23;20152;-89
2021/12/09 22:21:23;;;;;;;23.37;11.50;;;;;;;;;;6214401;23;20167;-88
2021/12/09 22:24:30;;;;;;;21.67;11.33;;;;;;;;;;6214136;23;20206;-87
2021/12/09 22:27:35;;;;;;;23.93;11.60;;;;;;;;;;6215844;23;20166;-89
2021/12/09 22:30:41;;;;;;;28.57;12.33;;;;;;;;;;6212949;23;20250;-88
2021/12/09 22:33:46;;;;;;;25.80;11.93;;;;;;;;;;6215661;23;20167;-87
2021/12/09 22:36:51;;;;;;;24.27;11.40;;;;;;;;;;6211151;23;20179;-87
2021/12/09 22:39:57;;;;;;;23.00;11.13;;;;;;;;;;6216351;23;20310;-88
2021/12/09 22:43:02;;;;;;;24.03;12.37;;;;;;;;;;6212426;23;20633;-87
2021/12/09 22:46:08;;;;;;;22.27;11.33;;;;;;;;;;6212896;23;20191;-87
2021/12/09 22:49:13;;;;;;;23.03;11.43;;;;;;;;;;6214128;23;20171;-87
2021/12/09 22:52:19;;;;;;;25.47;12.23;;;;;;;;;;6214298;23;20167;-87
2021/12/09 22:55:29;;;;;;;23.53;11.80;;;;;;;;;;6210864;23;20175;-87
2021/12/09 22:58:34;;;;;;;23.33;11.10;;;;;;;;;;6211944;23;20178;-89
2021/12/09 23:02:05;;;;;;;27.73;12.57;;;;;;;;;;6213104;23;20606;-87
2021/12/09 23:05:09;;;;;;;26.20;12.17;;;;;;;;;;6212165;23;20202;-89
2021/12/09 23:08:16;;;;;;;29.67;10.60;;;;;;;;;;6211548;23;20170;-88
2021/12/09 23:11:23;;;;;;;23.57;12.33;;;;;;;;;;6231236;23;20166;-89
2021/12/09 23:14:35;;;;;;;27.93;13.13;;;;;;;;;;6212148;23;20183;-88
2021/12/09 23:17:43;;;;;;;21.97;10.90;;;;;;;;;;6212604;23;20171;-88
2021/12/09 23:20:48;;;;;;;27.57;11.80;;;;;;;;;;6211817;23;20250;-88
2021/12/09 23:23:54;;;;;;;23.83;11.73;;;;;;;;;;6212055;23;20582;-88
2021/12/09 23:27:01;;;;;;;24.77;11.70;;;;;;;;;;6231912;23;20179;-87
2021/12/09 23:30:07;;;;;;;26.47;11.30;;;;;;;;;;6209581;23;20164;-87
2021/12/09 23:33:13;;;;;;;25.23;11.70;;;;;;;;;;6212391;23;20170;-87
2021/12/09 23:36:18;;;;;;;23.40;11.00;;;;;;;;;;6215550;23;20211;-88
2021/12/09 23:39:23;;;;;;;22.43;11.80;;;;;;;;;;6213408;23;20235;-89
2021/12/09 23:42:31;;;;;;;23.73;11.40;;;;;;;;;;6213362;23;20167;-88
2021/12/09 23:45:36;;;;;;;22.27;11.13;;;;;;;;;;6213311;23;20171;-88
2021/12/09 23:48:42;;;;;;;22.90;10.90;;;;;;;;;;6214403;23;20212;-87
2021/12/09 23:51:49;;;;;;;22.83;11.83;;;;;;;;;;6216458;23;20155;-87
2021/12/09 23:54:54;;;;;;;21.67;10.97;;;;;;;;;;6217956;23;20162;-87
2021/12/09 23:58:01;;;;;;;25.80;11.70;;;;;;;;;;6220529;23;20175;-89
